Time;durP1;ratioP1;P1;durP2;ratioP2;P2;SDS_P1;SDS_P2;PMS_P1;PMS_P2;Temp;Humidity;BMP_temperature;BMP_pressure;BME280_temperature;BME280_humidity;BME280_pressure;Samples;Min_cycle;Max_cycle;Signal;HPM_P1;HPM_P2
2022/08/05 00:00:45;;;;;;;7.55;3.58;;;20.50;99.90;;;-144.05;67.06;125687.94;4875600;29;20057;-89
2022/08/05 00:03:11;;;;;;;9.95;3.70;;;20.50;99.90;;;-144.05;67.13;125687.94;4894333;29;20032;-89
2022/08/05 00:05:37;;;;;;;8.15;3.35;;;20.50;99.90;;;-144.05;66.10;125687.94;4879378;29;20041;-84
2022/08/05 00:08:04;;;;;;;4.53;2.78;;;20.40;99.90;;;-144.05;65.53;125687.94;4879650;29;20041;-87
2022/08/05 00:10:30;;;;;;;5.22;2.42;;;20.40;99.90;;;-144.05;65.12;125687.94;4891988;29;20049;-89
2022/08/05 00:12:56;;;;;;;8.25;2.80;;;20.40;99.90;;;-144.05;65.83;125687.94;4897398;29;20033;-90
2022/08/05 00:15:23;;;;;;;4.43;2.80;;;20.40;99.90;;;-144.05;65.26;125687.94;4901250;29;20066;-90
2022/08/05 00:17:48;;;;;;;5.32;2.42;;;20.40;99.90;;;-144.05;64.31;125687.94;4883917;29;20040;-88
2022/08/05 00:20:14;;;;;;;5.47;2.40;;;20.30;99.90;;;-144.05;64.43;125687.94;4884451;29;20033;-88
2022/08/05 00:22:40;;;;;;;8.00;2.58;;;20.30;99.90;;;-144.05;64.14;125687.94;4883908;29;20029;-88
2022/08/05 00:25:06;;;;;;;6.35;2.50;;;20.30;99.90;;;-144.05;64.09;125687.94;4883170;29;20056;-88
2022/08/05 00:27:33;;;;;;;5.85;2.45;;;20.30;99.90;;;-144.05;63.35;125687.94;4898437;29;20076;-90
2022/08/05 00:29:58;;;;;;;4.30;2.45;;;20.20;99.90;;;-144.05;63.35;125687.94;4883556;29;20395;-88
2022/08/05 00:32:24;;;;;;;7.03;2.53;;;20.20;99.90;;;-144.05;63.77;125687.94;4901258;29;20035;-89
2022/08/05 00:34:51;;;;;;;3.92;2.25;;;20.20;99.90;;;-144.05;64.19;125687.94;4900633;29;20096;-90
2022/08/05 00:37:17;;;;;;;4.45;2.42;;;20.20;99.90;;;-144.05;63.93;125687.94;4885625;29;20080;-87
2022/08/05 00:39:43;;;;;;;4.85;2.35;;;20.10;99.90;;;-144.05;64.30;125687.94;4899932;29;20029;-87
2022/08/05 00:42:08;;;;;;;6.85;2.78;;;20.10;99.90;;;-144.05;64.25;125687.94;4900421;29;20136;-89
2022/08/05 00:44:34;;;;;;;5.40;2.28;;;20.10;99.90;;;-144.05;63.83;125687.94;4901110;29;20063;-88
2022/08/05 00:47:00;;;;;;;4.75;1.80;;;20.20;99.90;;;-144.05;62.39;125687.94;4900757;29;20028;-89
2022/08/05 00:49:26;;;;;;;7.25;2.05;;;20.20;99.90;;;-144.05;62.64;125687.94;4900111;29;20558;-87
2022/08/05 00:51:52;;;;;;;5.07;2.17;;;20.20;99.90;;;-144.05;62.43;125687.94;4901092;29;20044;-91
2022/08/05 00:54:18;;;;;;;6.57;2.22;;;20.10;99.90;;;-144.05;63.11;125687.94;4885123;29;20028;-89
2022/08/05 00:56:44;;;;;;;5.10;2.30;;;20.10;99.90;;;-144.05;63.01;125687.94;4902299;29;20070;-90
2022/08/05 00:59:10;;;;;;;4.28;2.08;;;20.00;99.90;;;-144.05;63.07;125687.94;4910828;29;20036;-85
2022/08/05 01:01:35;;;;;;;6.28;2.10;;;20.00;99.90;;;-144.05;63.30;125687.94;4920553;29;20048;-86
2022/08/05 01:04:02;;;;;;;5.88;2.35;;;20.00;99.90;;;-144.05;63.58;125687.94;4920569;29;20024;-85
2022/08/05 01:06:28;;;;;;;7.13;2.33;;;19.90;99.90;;;-144.05;63.59;125687.94;4920479;29;20064;-84
2022/08/05 01:08:54;;;;;;;6.47;2.05;;;19.90;99.90;;;-144.05;63.44;125687.94;4921151;29;20069;-87
2022/08/05 01:11:26;;;;;;;5.88;2.45;;;19.90;99.90;;;-144.05;63.98;125687.94;4918650;29;20020;-85
2022/08/05 01:14:30;;;;;;;4.82;2.20;;;19.80;99.90;;;-144.05;64.62;125687.94;4906514;29;20025;-85
2022/08/05 01:17:16;;;;;;;4.30;2.17;;;19.80;99.90;;;-144.05;64.92;125687.94;4901960;29;20073;-84
2022/08/05 01:20:00;;;;;;;4.68;2.40;;;19.80;99.90;;;-144.05;64.33;125687.94;4886013;29;20025;-85
2022/08/05 01:23:03;;;;;;;5.80;2.50;;;19.80;99.90;;;-144.05;64.38;125687.94;4901479;29;20101;-84
2022/08/05 01:26:25;;;;;;;5.13;2.30;;;19.70;99.90;;;-144.05;64.43;125687.94;4892500;29;20033;-88
2022/08/05 01:29:01;;;;;;;5.25;2.30;;;19.80;99.90;;;-144.05;64.18;125687.94;4898099;29;20054;-85
2022/08/05 01:31:41;;;;;;;3.65;1.67;;;19.70;99.90;;;-144.05;64.50;125687.94;4896302;29;20097;-84
2022/08/05 01:34:21;;;;;;;6.10;2.78;;;19.80;99.90;;;-144.05;65.07;125687.94;4890573;29;20165;-92
2022/08/05 01:37:00;;;;;;;4.07;2.60;;;19.80;99.90;;;-144.05;65.48;125687.94;4883373;29;20036;-91
2022/08/05 01:39:30;;;;;;;6.18;2.53;;;19.80;99.90;;;-144.05;65.36;125687.94;4868168;29;20086;-87
2022/08/05 01:42:00;;;;;;;6.55;2.85;;;19.80;99.90;;;-144.05;65.43;125687.94;4868687;29;20033;-87
2022/08/05 01:44:29;;;;;;;4.38;2.20;;;19.80;99.90;;;-144.05;65.50;125687.94;4867753;29;20029;-89
2022/08/05 01:47:00;;;;;;;2.92;2.47;;;19.80;99.90;;;-144.05;65.36;125687.94;4865121;29;20040;-86
2022/08/05 01:49:31;;;;;;;6.20;2.22;;;19.80;99.90;;;-144.05;65.09;125687.94;4879807;29;20069;-88
2022/08/05 01:52:02;;;;;;;3.63;1.90;;;19.90;99.90;;;-144.05;65.34;125687.94;4880427;29;20456;-88
2022/08/05 01:54:40;;;;;;;5.22;2.30;;;19.90;99.90;;;-144.05;65.48;125687.94;4882027;29;20057;-87
2022/08/05 01:57:11;;;;;;;4.97;2.50;;;19.90;99.90;;;-144.05;64.28;125687.94;4881962;29;20065;-89
2022/08/05 01:59:42;;;;;;;6.07;2.33;;;19.90;99.90;;;-144.05;63.66;125687.94;4866725;29;20072;-87
2022/08/05 02:02:12;;;;;;;4.47;2.35;;;19.90;99.90;;;-144.05;63.65;125687.94;4882144;29;20036;-87
2022/08/05 02:04:45;;;;;;;8.25;2.72;;;20.00;99.90;;;-144.05;64.18;125687.94;4882395;29;20093;-86
2022/08/05 02:07:11;;;;;;;4.80;2.40;;;19.90;99.90;;;-144.05;64.44;125687.94;4880834;29;20479;-87
2022/08/05 02:09:37;;;;;;;5.50;2.80;;;19.90;99.90;;;-144.05;64.78;125687.94;4880161;29;20033;-86
2022/08/05 02:12:32;;;;;;;8.70;2.75;;;19.80;99.90;;;-144.05;64.99;125687.94;4881563;29;20029;-87
2022/08/05 02:15:29;;;;;;;6.72;3.00;;;19.90;99.90;;;-144.05;64.82;125687.94;4864191;29;20491;-87
2022/08/05 02:18:13;;;;;;;8.40;3.10;;;19.80;99.90;;;-144.05;64.80;125687.94;4864142;29;20437;-90
2022/08/05 02:21:08;;;;;;;10.02;2.88;;;19.80;99.90;;;-144.05;65.01;125687.94;4880887;29;20031;-88
2022/08/05 02:23:41;;;;;;;6.78;3.45;;;19.80;99.90;;;-144.05;65.11;125687.94;4864920;29;20124;-89
2022/08/05 02:26:14;;;;;;;6.45;2.90;;;19.80;99.90;;;-144.05;64.89;125687.94;4881212;29;20036;-87
2022/08/05 02:28:45;;;;;;;8.52;2.83;;;19.80;99.90;;;-144.05;64.92;125687.94;4864711;29;20029;-88
2022/08/05 02:31:29;;;;;;;5.70;2.95;;;19.80;99.90;;;-144.05;65.13;125687.94;4864939;29;20029;-87
2022/08/05 02:34:12;;;;;;;5.30;2.78;;;19.80;99.90;;;-144.05;65.38;125687.94;4880536;29;20488;-89
2022/08/05 02:36:52;;;;;;;5.70;2.97;;;19.70;99.90;;;-144.05;66.17;125687.94;4865392;29;20041;-90
2022/08/05 02:39:23;;;;;;;5.40;2.58;;;19.70;99.90;;;-144.05;66.36;125687.94;4865255;29;20078;-88
2022/08/05 02:41:52;;;;;;;7.85;2.58;;;19.70;99.90;;;-144.05;66.58;125687.94;4882354;29;20029;-86
2022/08/05 02:44:23;;;;;;;7.07;2.72;;;19.70;99.90;;;-144.05;66.75;125687.94;4865917;29;20061;-89
2022/08/05 02:46:53;;;;;;;5.65;3.20;;;19.60;99.90;;;-144.05;67.17;125687.94;4866077;29;20025;-89
2022/08/05 02:49:21;;;;;;;4.20;2.67;;;19.60;99.90;;;-144.05;67.78;125687.94;4882329;29;20033;-89
2022/08/05 02:51:49;;;;;;;6.90;3.10;;;19.50;99.90;;;-144.05;68.28;125687.94;4865028;29;20180;-89
2022/08/05 02:54:18;;;;;;;7.78;3.20;;;19.50;99.90;;;-144.05;68.55;125687.94;4881476;29;20132;-88
2022/08/05 02:56:45;;;;;;;6.85;3.45;;;19.40;99.90;;;-144.05;68.66;125687.94;4879726;29;20032;-90
2022/08/05 02:59:16;;;;;;;5.60;3.08;;;19.40;99.90;;;-144.05;68.97;125687.94;4881768;29;20040;-89
2022/08/05 03:01:43;;;;;;;7.78;3.03;;;19.30;99.90;;;-144.05;68.60;125687.94;4884606;29;20424;-88
2022/08/05 03:04:14;;;;;;;6.88;3.33;;;19.30;99.90;;;-144.05;68.89;125687.94;4884854;29;20041;-91
2022/08/05 03:06:41;;;;;;;8.55;3.40;;;19.20;99.90;;;-144.05;68.87;125687.94;4873182;29;20067;-88
2022/08/05 03:09:12;;;;;;;7.80;3.50;;;19.10;99.90;;;-144.05;69.41;125687.94;4889388;29;20044;-88
2022/08/05 03:11:43;;;;;;;8.10;3.42;;;19.10;99.90;;;-144.05;70.31;125687.94;4871393;29;20035;-89
2022/08/05 03:14:10;;;;;;;5.88;3.20;;;19.00;99.90;;;-144.05;71.33;125687.94;4886659;29;20032;-89
2022/08/05 03:16:37;;;;;;;6.72;3.72;;;19.00;99.90;;;-144.05;72.12;125687.94;4905908;29;20333;-89
2022/08/05 03:19:04;;;;;;;8.38;3.60;;;19.00;99.90;;;-144.05;72.35;125687.94;4907018;29;20039;-90
2022/08/05 03:21:30;;;;;;;7.53;3.90;;;18.90;99.90;;;-144.05;73.15;125687.94;4908961;29;20076;-89
2022/08/05 03:23:58;;;;;;;7.78;3.88;;;18.80;99.90;;;-144.05;74.06;125687.94;4907149;29;20028;-88
2022/08/05 03:26:24;;;;;;;6.82;4.03;;;18.80;99.90;;;-144.05;74.25;125687.94;4903084;29;20040;-88
2022/08/05 03:28:51;;;;;;;6.72;3.97;;;18.80;99.90;;;-144.05;74.42;125687.94;4903426;29;20029;-90
2022/08/05 03:31:17;;;;;;;6.72;4.05;;;18.80;99.90;;;-144.05;74.60;125687.94;4902733;29;20096;-87
2022/08/05 03:33:44;;;;;;;5.57;3.47;;;18.70;99.90;;;-144.05;74.74;125687.94;4910775;29;20167;-83
2022/08/05 03:36:09;;;;;;;8.50;3.72;;;18.70;99.90;;;-144.05;75.10;125687.94;4922485;29;20055;-85
2022/08/05 03:38:41;;;;;;;6.50;3.50;;;18.70;99.90;;;-144.05;75.63;125687.94;4904417;29;20044;-88
2022/08/05 03:41:07;;;;;;;6.43;4.22;;;18.70;99.90;;;-144.05;75.76;125687.94;4902061;29;20153;-88
2022/08/05 03:43:33;;;;;;;7.70;4.18;;;18.60;99.90;;;-144.05;76.52;125687.94;4901395;29;20040;-89
2022/08/05 03:46:00;;;;;;;7.30;4.47;;;18.60;99.90;;;-144.05;76.72;125687.94;4904153;29;20036;-87
2022/08/05 03:48:28;;;;;;;7.80;4.50;;;18.50;99.90;;;-144.05;77.93;125687.94;4903753;29;20056;-90
2022/08/05 03:51:49;;;;;;;8.65;5.43;;;18.40;99.90;;;-144.05;78.91;125687.94;4905843;29;20028;-91
2022/08/05 03:54:55;;;;;;;9.43;4.82;;;18.30;99.90;;;-144.05;79.00;125687.94;4888204;29;20040;-88
2022/08/05 03:57:29;;;;;;;11.88;6.38;;;18.30;99.90;;;-144.05;79.74;125687.94;4910477;29;20040;-92
2022/08/05 04:00:14;;;;;;;10.60;6.35;;;18.20;99.90;;;-144.05;80.15;125687.94;4908392;29;20068;-91
2022/08/05 04:02:54;;;;;;;14.45;6.97;;;18.20;99.90;;;-144.05;81.91;125687.94;4912706;29;20498;-91
2022/08/05 04:07:09;;;;;;;;;;;;;;;;;;;;;
2022/08/05 04:10:09;;;;;;;12.38;7.43;;;18.20;99.90;;;-144.05;81.82;125687.94;4806879;29;20059;-91
2022/08/05 04:12:45;;;;;;;11.75;7.78;;;18.10;99.90;;;-144.05;81.84;125687.94;4822164;29;20042;-94
2022/08/05 04:15:14;;;;;;;15.57;8.70;;;18.00;99.90;;;-144.05;82.40;125687.94;4893117;29;20141;-91
2022/08/05 04:17:49;;;;;;;18.52;9.15;;;18.00;99.90;;;-144.05;82.78;125687.94;4905850;29;20036;-90
2022/08/05 04:20:36;;;;;;;12.25;9.05;;;18.00;99.90;;;-144.05;82.89;125687.94;4894964;29;20188;-92
2022/08/05 04:23:06;;;;;;;16.77;8.82;;;18.00;99.90;;;-144.05;82.87;125687.94;4903393;29;20096;-89
2022/08/05 04:25:33;;;;;;;18.83;8.95;;;18.00;99.90;;;-144.05;83.11;125687.94;4907123;29;20033;-90
2022/08/05 04:28:00;;;;;;;16.67;8.23;;;18.00;99.90;;;-144.05;82.92;125687.94;4909693;29;20032;-92
2022/08/05 04:30:27;;;;;;;9.95;7.25;;;18.00;99.90;;;-144.05;83.31;125687.94;4916768;29;20048;-87
2022/08/05 04:32:53;;;;;;;14.30;8.38;;;18.10;99.90;;;-144.05;83.59;125687.94;4900230;29;20032;-87
2022/08/05 04:35:19;;;;;;;15.50;8.50;;;18.10;99.90;;;-144.05;84.35;125687.94;4902477;29;20047;-87
2022/08/05 04:37:44;;;;;;;11.65;7.47;;;18.10;99.90;;;-144.05;85.05;125687.94;4901336;29;20036;-87
2022/08/05 04:40:11;;;;;;;13.27;8.27;;;18.00;99.90;;;-144.05;85.27;125687.94;4900667;29;20056;-86
2022/08/05 04:42:37;;;;;;;15.35;7.93;;;18.10;99.90;;;-144.05;85.05;125687.94;4904619;29;20047;-86
2022/08/05 04:45:04;;;;;;;12.10;7.35;;;18.10;99.90;;;-144.05;84.68;125687.94;4921285;29;20021;-86
2022/08/05 04:47:30;;;;;;;12.32;7.13;;;18.10;99.90;;;-144.05;84.64;125687.94;4919494;29;20044;-88
2022/08/05 04:49:56;;;;;;;12.40;7.65;;;18.20;99.90;;;-144.05;84.38;125687.94;4899830;29;20064;-87
2022/08/05 04:52:22;;;;;;;9.73;7.05;;;18.10;99.90;;;-144.05;84.65;125687.94;4900281;29;20370;-88
2022/08/05 04:54:48;;;;;;;11.90;6.85;;;18.20;99.90;;;-144.05;84.91;125687.94;4901507;29;20064;-88
2022/08/05 04:57:13;;;;;;;9.93;6.82;;;18.20;99.90;;;-144.05;84.97;125687.94;4899871;29;20043;-90
2022/08/05 04:59:39;;;;;;;12.07;7.20;;;18.30;99.90;;;-144.05;85.32;125687.94;4899344;29;20461;-89
2022/08/05 05:02:07;;;;;;;15.32;9.02;;;18.30;99.90;;;-144.05;85.49;125687.94;4899500;29;20036;-89
2022/08/05 05:04:32;;;;;;;11.23;8.80;;;18.30;99.90;;;-144.05;85.57;125687.94;4900467;29;20092;-89
2022/08/05 05:06:58;;;;;;;15.65;8.18;;;18.30;99.90;;;-144.05;85.70;125687.94;4905036;29;20068;-90
2022/08/05 05:09:24;;;;;;;13.77;7.88;;;18.30;99.90;;;-144.05;85.84;125687.94;4904255;29;20153;-91
2022/08/05 05:12:07;;;;;;;15.23;9.82;;;18.40;99.90;;;-144.05;85.87;125687.94;4890242;29;20398;-90
2022/08/05 05:14:33;;;;;;;24.33;10.63;;;18.30;99.90;;;-144.05;85.80;125687.94;4891696;29;20039;-91
2022/08/05 05:17:00;;;;;;;18.60;10.00;;;18.20;99.90;;;-144.05;85.97;125687.94;4886491;29;20579;-90
2022/08/05 05:19:26;;;;;;;20.58;11.15;;;18.20;99.90;;;-144.05;86.16;125687.94;4887247;29;20114;-91
2022/08/05 05:21:53;;;;;;;17.95;12.10;;;18.20;99.90;;;-144.05;86.09;125687.94;4889557;29;20040;-91
2022/08/05 05:24:20;;;;;;;21.90;14.30;;;18.20;99.90;;;-144.05;86.35;125687.94;4888441;29;20037;-91
2022/08/05 05:26:47;;;;;;;26.00;15.70;;;18.20;99.90;;;-144.05;86.10;125687.94;4890824;29;20037;-88
2022/08/05 05:29:13;;;;;;;28.55;18.60;;;18.10;99.90;;;-144.05;86.41;125687.94;4891119;29;20029;-91
2022/08/05 05:31:39;;;;;;;36.00;21.58;;;18.10;99.90;;;-144.05;86.43;125687.94;4895448;29;20036;-91
2022/08/05 05:34:05;;;;;;;34.17;21.02;;;18.10;99.90;;;-144.05;86.45;125687.94;4891714;29;20069;-92
2022/08/05 05:36:31;;;;;;;25.02;17.35;;;18.00;99.90;;;-144.05;86.65;125687.94;4886658;29;20029;-92
2022/08/05 05:38:57;;;;;;;32.83;19.50;;;18.00;99.90;;;-144.05;86.74;125687.94;4888822;29;20032;-89
2022/08/05 05:41:24;;;;;;;26.48;18.60;;;18.00;99.90;;;-144.05;86.68;125687.94;4901541;29;20069;-90
2022/08/05 05:43:49;;;;;;;28.35;18.80;;;18.00;99.90;;;-144.05;86.69;125687.94;4890040;29;20045;-90
2022/08/05 05:46:15;;;;;;;27.50;16.85;;;18.00;99.90;;;-144.05;86.88;125687.94;4884313;29;20563;-90
2022/08/05 05:48:46;;;;;;;23.63;15.45;;;18.10;99.90;;;-144.05;87.11;125687.94;4868476;29;20077;-91
2022/08/05 05:51:23;;;;;;;32.22;18.13;;;18.20;99.90;;;-144.05;87.05;125687.94;4883501;29;20052;-90
2022/08/05 05:53:53;;;;;;;20.50;16.08;;;18.20;99.90;;;-144.05;86.94;125687.94;4885026;29;20096;-92
2022/08/05 05:56:20;;;;;;;25.48;15.40;;;18.20;99.90;;;-144.05;87.20;125687.94;4888944;29;20100;-90
2022/08/05 05:58:49;;;;;;;27.67;17.98;;;18.20;99.90;;;-144.05;87.04;125687.94;4890266;29;20507;-90
2022/08/05 06:01:15;;;;;;;21.92;16.00;;;18.20;99.90;;;-144.05;86.80;125687.94;4874780;29;20033;-92
2022/08/05 06:03:41;;;;;;;24.05;17.27;;;18.20;99.90;;;-144.05;86.60;125687.94;4894343;29;20071;-90
2022/08/05 06:06:07;;;;;;;21.85;16.17;;;18.20;99.90;;;-144.05;86.45;125687.94;4893938;29;20029;-91
2022/08/05 06:08:33;;;;;;;27.70;18.00;;;18.20;99.90;;;-144.05;86.32;125687.94;4897038;29;20033;-89
2022/08/05 06:11:01;;;;;;;23.10;15.23;;;18.10;99.90;;;-144.05;86.16;125687.94;4883590;29;20083;-91
2022/08/05 06:14:08;;;;;;;20.40;14.63;;;18.10;99.90;;;-144.05;86.44;125687.94;4900616;29;20093;-89
2022/08/05 11:09:49;;;;;;;6.28;3.47;;;18.60;99.90;;;-144.05;71.33;125687.94;4942450;29;20054;-89
2022/08/05 11:12:42;;;;;;;6.85;3.15;;;18.70;99.90;;;-144.05;70.24;125687.94;4940718;29;20032;-90
2022/08/05 11:15:20;;;;;;;5.75;3.40;;;18.80;99.90;;;-144.05;69.62;125687.94;4923211;29;20120;-90
2022/08/05 11:17:53;;;;;;;6.88;2.50;;;19.00;99.90;;;-144.05;68.23;125687.94;4941634;29;20122;-88
2022/08/05 11:20:46;;;;;;;6.95;3.47;;;19.10;99.90;;;-144.05;67.49;125687.94;4939638;29;20028;-91
2022/08/05 11:23:50;;;;;;;7.53;3.38;;;19.30;99.90;;;-144.05;67.75;125687.94;4939194;29;20094;-90
2022/08/05 11:26:20;;;;;;;5.22;3.25;;;19.40;99.90;;;-144.05;66.56;125687.94;4942219;29;20143;-88
2022/08/05 11:28:50;;;;;;;8.98;3.80;;;19.80;99.90;;;-144.05;64.07;125687.94;4926776;29;20581;-89
2022/08/05 11:31:17;;;;;;;5.50;2.80;;;20.40;99.90;;;-144.05;61.87;125687.94;4927508;29;20032;-87
2022/08/05 11:33:45;;;;;;;5.85;2.90;;;21.00;99.90;;;-144.05;59.77;125687.94;4943770;29;20036;-88
2022/08/05 11:36:38;;;;;;;5.45;2.60;;;21.20;99.90;;;-144.05;59.97;125687.94;4945337;29;20032;-90
2022/08/05 11:39:08;;;;;;;4.75;1.90;;;21.20;99.90;;;-144.05;58.61;125687.94;4945053;29;20498;-88
2022/08/05 11:41:36;;;;;;;5.72;2.97;;;21.30;99.90;;;-144.05;56.74;125687.94;4946280;29;20391;-88
2022/08/05 11:44:11;;;;;;;4.28;2.08;;;21.40;99.90;;;-144.05;57.03;125687.94;4943435;29;20042;-86
2022/08/05 11:46:51;;;;;;;4.80;2.00;;;21.70;99.90;;;-144.05;53.10;125687.94;4928550;29;20402;-86
2022/08/05 11:49:22;;;;;;;2.10;1.40;;;22.00;99.90;;;-144.05;53.11;125687.94;4945068;29;20063;-86
2022/08/05 11:51:54;;;;;;;3.90;2.08;;;22.10;99.90;;;-144.05;52.27;125687.94;4944197;29;20036;-85
2022/08/05 11:54:33;;;;;;;6.10;1.85;;;22.20;99.90;;;-144.05;51.69;125687.94;4945161;29;20078;-87
2022/08/05 11:57:03;;;;;;;4.95;1.85;;;22.50;99.90;;;-144.05;52.21;125687.94;4926744;29;20378;-85
2022/08/05 11:59:32;;;;;;;6.43;1.80;;;22.60;99.90;;;-144.05;51.52;125687.94;4943464;29;20038;-87
2022/08/05 12:02:06;;;;;;;4.93;1.83;;;22.80;99.90;;;-144.05;51.15;125687.94;4942778;29;20175;-87
2022/08/05 12:04:45;;;;;;;7.57;2.03;;;22.60;99.90;;;-144.05;51.32;125687.94;4945256;29;20039;-89
2022/08/05 12:07:16;;;;;;;4.15;2.22;;;23.00;99.90;;;-144.05;50.18;125687.94;4946865;29;20439;-87
2022/08/05 12:10:06;;;;;;;6.82;2.00;;;23.20;99.90;;;-144.05;47.94;125687.94;4948485;29;20055;-88
2022/08/05 12:12:32;;;;;;;7.07;1.75;;;23.20;99.90;;;-144.05;48.49;125687.94;4944160;29;20556;-88
2022/08/05 12:14:58;;;;;;;3.63;2.00;;;23.20;99.90;;;-144.05;50.07;125687.94;4927910;29;20114;-87
2022/08/05 12:17:26;;;;;;;4.95;1.92;;;23.20;99.90;;;-144.05;48.86;125687.94;4944531;29;20028;-89
2022/08/05 12:19:56;;;;;;;5.70;1.90;;;23.60;99.90;;;-144.05;46.33;125687.94;4926781;29;20039;-87
2022/08/05 12:22:28;;;;;;;6.13;2.20;;;24.00;99.90;;;-144.05;47.37;125687.94;4925897;29;20027;-87
2022/08/05 12:24:57;;;;;;;6.40;1.98;;;23.80;99.90;;;-144.05;46.80;125687.94;4927545;29;20062;-90
2022/08/05 12:27:30;;;;;;;5.97;1.98;;;23.60;99.90;;;-144.05;46.44;125687.94;4930379;29;20103;-92
2022/08/05 12:30:08;;;;;;;3.47;1.83;;;23.60;99.90;;;-144.05;46.60;125687.94;4932137;29;20032;-90
2022/08/05 12:32:44;;;;;;;5.55;1.90;;;23.50;99.90;;;-144.05;48.04;125687.94;4928766;29;20050;-88
2022/08/05 12:35:12;;;;;;;3.25;2.08;;;23.30;99.90;;;-144.05;47.02;125687.94;4926352;29;20143;-87
2022/08/05 12:37:38;;;;;;;2.85;1.60;;;23.30;99.90;;;-144.05;47.44;125687.94;4926158;29;20055;-89
2022/08/05 12:40:12;;;;;;;3.65;1.90;;;23.50;99.90;;;-144.05;46.89;125687.94;4924057;29;20169;-88
2022/08/05 12:42:39;;;;;;;5.28;1.90;;;23.50;99.90;;;-144.05;46.96;125687.94;4924545;29;20038;-90
2022/08/05 12:45:09;;;;;;;4.63;1.85;;;23.00;99.90;;;-144.05;46.90;125687.94;4923639;29;20028;-88
2022/08/05 12:47:37;;;;;;;3.72;1.63;;;23.20;99.90;;;-144.05;46.43;125687.94;4923851;29;20062;-88
2022/08/05 12:50:16;;;;;;;4.70;2.10;;;23.70;99.90;;;-144.05;44.45;125687.94;4923750;29;20028;-91
2022/08/05 12:52:58;;;;;;;4.57;2.40;;;24.10;99.90;;;-144.05;43.63;125687.94;4924039;29;20147;-90
2022/08/05 12:55:29;;;;;;;5.20;1.85;;;24.30;99.90;;;-144.05;44.14;125687.94;4923811;29;20081;-88
2022/08/05 12:58:00;;;;;;;6.32;2.40;;;24.20;99.90;;;-144.05;44.62;125687.94;4922989;29;20046;-88
2022/08/05 13:00:32;;;;;;;6.53;2.00;;;24.00;99.90;;;-144.05;44.37;125687.94;4922602;29;20482;-88
2022/08/05 13:03:00;;;;;;;5.10;2.10;;;23.50;99.90;;;-144.05;45.70;125687.94;4922820;29;20103;-89
2022/08/05 13:05:26;;;;;;;3.03;1.70;;;23.50;99.90;;;-144.05;44.80;125687.94;4922618;29;20031;-86
2022/08/05 13:07:57;;;;;;;3.85;1.63;;;23.80;99.90;;;-144.05;44.23;125687.94;4922379;29;20035;-89
2022/08/05 13:10:23;;;;;;;3.97;1.80;;;24.10;99.90;;;-144.05;44.10;125687.94;4939321;29;20113;-88
2022/08/05 13:12:51;;;;;;;4.25;1.98;;;23.90;99.90;;;-144.05;44.31;125687.94;4921853;29;20031;-88
2022/08/05 13:15:18;;;;;;;3.13;1.60;;;23.50;99.90;;;-144.05;45.70;125687.94;4922080;29;20136;-87
2022/08/05 13:17:54;;;;;;;4.45;2.38;;;22.90;99.90;;;-144.05;47.18;125687.94;4922526;29;20090;-87
2022/08/05 13:20:20;;;;;;;3.40;1.80;;;22.30;99.90;;;-144.05;48.78;125687.94;4938712;29;20036;-89
2022/08/05 13:22:52;;;;;;;4.63;1.90;;;21.90;99.90;;;-144.05;50.03;125687.94;4922992;29;20032;-89
2022/08/05 13:25:20;;;;;;;5.93;2.35;;;21.60;99.90;;;-144.05;50.08;125687.94;4922736;29;20032;-91
2022/08/05 13:27:54;;;;;;;3.22;2.05;;;21.30;99.90;;;-144.05;50.87;125687.94;4921813;29;20066;-87
2022/08/05 13:30:24;;;;;;;3.67;2.13;;;21.20;99.90;;;-144.05;50.66;125687.94;4939118;29;20102;-87
2022/08/05 13:32:51;;;;;;;5.57;2.08;;;21.10;99.90;;;-144.05;50.78;125687.94;4939036;29;20545;-89
2022/08/05 13:35:19;;;;;;;4.20;2.15;;;21.20;99.90;;;-144.05;51.13;125687.94;4923307;29;20490;-88
2022/08/05 13:37:47;;;;;;;4.15;1.90;;;21.30;99.90;;;-144.05;49.86;125687.94;4921986;29;20129;-90
2022/08/05 13:40:15;;;;;;;3.03;1.88;;;21.40;99.90;;;-144.05;49.64;125687.94;4939667;29;20437;-89
2022/08/05 13:42:42;;;;;;;4.97;2.33;;;21.90;99.90;;;-144.05;47.59;125687.94;4922374;29;20074;-87
2022/08/05 13:45:09;;;;;;;4.70;2.15;;;22.50;99.90;;;-144.05;46.53;125687.94;4939748;29;20059;-88
2022/08/05 13:47:36;;;;;;;6.60;2.03;;;22.90;99.90;;;-144.05;45.70;125687.94;4939333;29;20031;-88
2022/08/05 13:50:05;;;;;;;2.92;1.55;;;23.40;99.90;;;-144.05;45.01;125687.94;4923363;29;20043;-87
2022/08/05 13:52:32;;;;;;;4.00;1.98;;;24.00;99.90;;;-144.05;43.50;125687.94;4940205;29;20408;-89
2022/08/05 13:54:58;;;;;;;4.15;1.90;;;24.30;99.90;;;-144.05;42.92;125687.94;4939495;29;20478;-88
2022/08/05 13:57:24;;;;;;;5.78;2.25;;;24.60;99.90;;;-144.05;42.84;125687.94;4923892;29;20043;-86
2022/08/05 13:59:50;;;;;;;4.50;1.70;;;24.80;99.90;;;-144.05;43.19;125687.94;4947872;29;20031;-88
2022/08/05 14:02:17;;;;;;;6.22;2.10;;;25.10;99.90;;;-144.05;42.29;125687.94;4930196;29;20043;-88
2022/08/05 14:07:38;;;;;;;2.30;1.58;;;24.80;99.90;;;-144.05;43.23;125687.94;4938638;29;20062;-87
2022/08/05 14:10:11;;;;;;;4.88;1.60;;;24.10;99.90;;;-144.05;44.25;125687.94;4921284;29;20087;-86
2022/08/05 14:12:40;;;;;;;3.60;1.67;;;23.60;99.90;;;-144.05;44.31;125687.94;4920577;29;20024;-86
2022/08/05 14:15:07;;;;;;;5.88;1.58;;;23.10;99.90;;;-144.05;45.80;125687.94;4923618;29;20028;-86
2022/08/05 14:17:34;;;;;;;3.90;1.70;;;22.60;99.90;;;-144.05;46.93;125687.94;4934748;29;20043;-87
2022/08/05 14:20:03;;;;;;;3.95;1.63;;;22.10;99.90;;;-144.05;47.87;125687.94;4946607;29;20130;-86
2022/08/05 14:22:29;;;;;;;4.82;1.55;;;21.60;99.90;;;-144.05;48.52;125687.94;4931788;29;20035;-87
2022/08/05 14:24:55;;;;;;;4.15;1.35;;;21.30;99.90;;;-144.05;49.04;125687.94;4927109;29;20144;-87
2022/08/05 14:27:20;;;;;;;5.28;1.70;;;21.10;99.90;;;-144.05;49.59;125687.94;4924540;29;20051;-85
2022/08/05 14:29:46;;;;;;;4.43;1.35;;;20.80;99.90;;;-144.05;49.69;125687.94;4942204;29;20043;-85
2022/08/05 14:32:12;;;;;;;7.10;2.00;;;20.70;99.90;;;-144.05;50.22;125687.94;4925323;29;20063;-85
2022/08/05 14:34:39;;;;;;;6.90;1.60;;;20.60;99.90;;;-144.05;49.91;125687.94;4925143;29;20028;-85
2022/08/05 14:37:05;;;;;;;3.83;1.30;;;20.50;99.90;;;-144.05;50.02;125687.94;4924851;29;20024;-84
2022/08/05 14:39:32;;;;;;;3.03;1.60;;;20.40;99.90;;;-144.05;50.10;125687.94;4941825;29;20020;-85
2022/08/05 14:41:59;;;;;;;5.10;1.45;;;20.40;99.90;;;-144.05;49.97;125687.94;4934214;29;20027;-81
2022/08/05 14:44:27;;;;;;;3.38;1.30;;;20.60;99.90;;;-144.05;49.97;125687.94;4958820;28;20044;-83
2022/08/05 14:46:53;;;;;;;3.22;1.23;;;20.70;99.90;;;-144.05;49.30;125687.94;4942035;29;20035;-85
2022/08/05 14:49:19;;;;;;;2.30;1.20;;;20.90;99.90;;;-144.05;48.64;125687.94;4938512;29;20036;-86
2022/08/05 14:51:45;;;;;;;3.83;1.10;;;20.90;99.90;;;-144.05;48.35;125687.94;4925570;29;20393;-87
2022/08/05 14:54:11;;;;;;;2.05;1.20;;;20.90;99.90;;;-144.05;47.86;125687.94;4943550;28;20039;-87
2022/08/05 14:56:37;;;;;;;3.38;1.15;;;21.00;99.90;;;-144.05;48.24;125687.94;4923761;29;20031;-86
2022/08/05 14:59:03;;;;;;;2.85;1.02;;;21.10;99.90;;;-144.05;48.17;125687.94;4927414;29;20032;-86
2022/08/05 15:01:29;;;;;;;2.50;0.90;;;21.10;99.90;;;-144.05;48.14;125687.94;4944718;29;20055;-86
2022/08/05 15:03:55;;;;;;;3.55;1.00;;;21.20;99.90;;;-144.05;47.39;125687.94;4932852;29;20095;-87
2022/08/05 15:06:21;;;;;;;1.73;0.98;;;21.20;99.90;;;-144.05;46.77;125687.94;4929442;29;20058;-87
2022/08/05 15:08:47;;;;;;;3.42;0.80;;;21.40;99.90;;;-144.05;46.33;125687.94;4944230;29;20039;-85
2022/08/05 15:11:13;;;;;;;2.38;1.10;;;21.50;99.90;;;-144.05;45.82;125687.94;4926520;29;20115;-87
2022/08/05 15:13:39;;;;;;;1.88;1.00;;;21.50;99.90;;;-144.05;45.49;125687.94;4927397;29;20032;-85